sensor_id;sensor_type;location;lat;lon;timestamp;temperature;humidity
9448;DHT22;4762;48.128;11.376;2022-12-08T00:01:43;0.50;94.30
9448;DHT22;4762;48.128;11.376;2022-12-08T00:03:46;0.40;94.40
9448;DHT22;4762;48.128;11.376;2022-12-08T00:05:48;0.50;94.50
9448;DHT22;4762;48.128;11.376;2022-12-08T00:07:56;0.30;95.00
9448;DHT22;4762;48.128;11.376;2022-12-08T00:10:05;0.30;94.80
9448;DHT22;4762;48.128;11.376;2022-12-08T00:12:11;0.50;94.70
9448;DHT22;4762;48.128;11.376;2022-12-08T00:14:12;0.50;94.40
9448;DHT22;4762;48.128;11.376;2022-12-08T00:16:15;0.50;94.40
9448;DHT22;4762;48.128;11.376;2022-12-08T00:18:18;0.60;94.00
9448;DHT22;4762;48.128;11.376;2022-12-08T00:20:21;0.50;94.00
9448;DHT22;4762;48.128;11.376;2022-12-08T00:22:25;0.70;94.00
9448;DHT22;4762;48.128;11.376;2022-12-08T00:24:29;0.50;93.90
9448;DHT22;4762;48.128;11.376;2022-12-08T00:26:35;0.60;94.00
9448;DHT22;4762;48.128;11.376;2022-12-08T00:28:38;0.60;94.10
9448;DHT22;4762;48.128;11.376;2022-12-08T00:30:40;0.40;94.30
9448;DHT22;4762;48.128;11.376;2022-12-08T00:32:43;0.50;94.60
9448;DHT22;4762;48.128;11.376;2022-12-08T00:34:46;0.50;94.60
9448;DHT22;4762;48.128;11.376;2022-12-08T00:36:49;0.30;95.10
9448;DHT22;4762;48.128;11.376;2022-12-08T00:38:51;0.40;94.90
9448;DHT22;4762;48.128;11.376;2022-12-08T00:40:53;0.40;95.10
9448;DHT22;4762;48.128;11.376;2022-12-08T00:42:56;0.50;95.30
9448;DHT22;4762;48.128;11.376;2022-12-08T00:44:58;0.40;95.00
9448;DHT22;4762;48.128;11.376;2022-12-08T00:47:00;0.40;94.60
9448;DHT22;4762;48.128;11.376;2022-12-08T00:49:04;0.60;94.40
9448;DHT22;4762;48.128;11.376;2022-12-08T00:51:06;0.40;95.40
9448;DHT22;4762;48.128;11.376;2022-12-08T00:53:09;0.50;95.20
9448;DHT22;4762;48.128;11.376;2022-12-08T00:55:13;0.50;95.50
9448;DHT22;4762;48.128;11.376;2022-12-08T00:57:15;0.50;95.50
9448;DHT22;4762;48.128;11.376;2022-12-08T00:59:18;0.50;95.10
9448;DHT22;4762;48.128;11.376;2022-12-08T01:01:20;0.40;94.90
9448;DHT22;4762;48.128;11.376;2022-12-08T01:03:23;0.70;94.80
9448;DHT22;4762;48.128;11.376;2022-12-08T01:05:25;0.50;94.80
9448;DHT22;4762;48.128;11.376;2022-12-08T01:07:28;0.50;94.90
9448;DHT22;4762;48.128;11.376;2022-12-08T01:09:32;0.50;94.70
9448;DHT22;4762;48.128;11.376;2022-12-08T01:11:35;0.50;94.60
9448;DHT22;4762;48.128;11.376;2022-12-08T01:13:38;0.50;94.90
9448;DHT22;4762;48.128;11.376;2022-12-08T01:15:40;0.50;95.00
9448;DHT22;4762;48.128;11.376;2022-12-08T01:17:43;0.30;95.30
9448;DHT22;4762;48.128;11.376;2022-12-08T01:19:45;0.40;95.30
9448;DHT22;4762;48.128;11.376;2022-12-08T01:21:49;0.30;95.50
9448;DHT22;4762;48.128;11.376;2022-12-08T01:23:52;0.30;95.30
9448;DHT22;4762;48.128;11.376;2022-12-08T01:25:54;0.40;95.40
9448;DHT22;4762;48.128;11.376;2022-12-08T01:27:56;0.20;95.30
9448;DHT22;4762;48.128;11.376;2022-12-08T01:29:59;0.20;95.50
9448;DHT22;4762;48.128;11.376;2022-12-08T01:32:01;0.20;95.50
9448;DHT22;4762;48.128;11.376;2022-12-08T01:34:03;0.30;95.20
9448;DHT22;4762;48.128;11.376;2022-12-08T01:36:06;0.30;95.10
9448;DHT22;4762;48.128;11.376;2022-12-08T01:38:11;0.30;95.50
9448;DHT22;4762;48.128;11.376;2022-12-08T01:40:13;0.30;95.30
9448;DHT22;4762;48.128;11.376;2022-12-08T01:42:19;0.40;95.30
9448;DHT22;4762;48.128;11.376;2022-12-08T01:46:54;0.40;95.50
9448;DHT22;4762;48.128;11.376;2022-12-08T01:49:12;0.40;95.40
9448;DHT22;4762;48.128;11.376;2022-12-08T01:51:13;0.40;95.00
9448;DHT22;4762;48.128;11.376;2022-12-08T01:53:18;0.30;94.70
9448;DHT22;4762;48.128;11.376;2022-12-08T01:55:22;0.40;94.70
9448;DHT22;4762;48.128;11.376;2022-12-08T01:57:26;0.10;95.10
9448;DHT22;4762;48.128;11.376;2022-12-08T01:59:26;0.30;94.90
9448;DHT22;4762;48.128;11.376;2022-12-08T02:01:28;0.50;95.10
9448;DHT22;4762;48.128;11.376;2022-12-08T02:03:43;0.20;95.80
9448;DHT22;4762;48.128;11.376;2022-12-08T02:05:47;0.30;95.10
9448;DHT22;4762;48.128;11.376;2022-12-08T02:07:51;0.10;94.80
9448;DHT22;4762;48.128;11.376;2022-12-08T02:09:53;0.40;94.50
9448;DHT22;4762;48.128;11.376;2022-12-08T02:11:57;0.10;95.40
9448;DHT22;4762;48.128;11.376;2022-12-08T02:14:02;0.00;95.70
9448;DHT22;4762;48.128;11.376;2022-12-08T02:16:10;0.20;95.80
9448;DHT22;4762;48.128;11.376;2022-12-08T02:18:24;0.10;95.50
9448;DHT22;4762;48.128;11.376;2022-12-08T02:20:28;0.10;95.50
9448;DHT22;4762;48.128;11.376;2022-12-08T02:29:48;0.00;94.70
9448;DHT22;4762;48.128;11.376;2022-12-08T02:32:10;0.00;95.30
9448;DHT22;4762;48.128;11.376;2022-12-08T02:34:14;-3276.70;96.00
9448;DHT22;4762;48.128;11.376;2022-12-08T02:36:29;-3276.70;95.90
9448;DHT22;4762;48.128;11.376;2022-12-08T02:38:35;-3276.60;95.50
9448;DHT22;4762;48.128;11.376;2022-12-08T02:40:43;0.00;95.40
9448;DHT22;4762;48.128;11.376;2022-12-08T02:42:43;-3276.50;95.30
9448;DHT22;4762;48.128;11.376;2022-12-08T02:44:51;-3276.60;95.20
9448;DHT22;4762;48.128;11.376;2022-12-08T02:46:57;-3276.70;95.40
9448;DHT22;4762;48.128;11.376;2022-12-08T02:48:59;-3276.70;95.90
9448;DHT22;4762;48.128;11.376;2022-12-08T02:51:02;-3276.70;96.00
9448;DHT22;4762;48.128;11.376;2022-12-08T02:53:05;-3276.70;95.80
9448;DHT22;4762;48.128;11.376;2022-12-08T02:55:10;-3276.60;95.90
9448;DHT22;4762;48.128;11.376;2022-12-08T02:57:17;-3276.50;96.50
9448;DHT22;4762;48.128;11.376;2022-12-08T02:59:21;-3276.70;96.50
9448;DHT22;4762;48.128;11.376;2022-12-08T03:01:45;-3276.50;96.70
9448;DHT22;4762;48.128;11.376;2022-12-08T03:03:54;0.00;96.20
9448;DHT22;4762;48.128;11.376;2022-12-08T03:06:02;-3276.50;96.50
9448;DHT22;4762;48.128;11.376;2022-12-08T03:08:14;-3276.70;96.50
9448;DHT22;4762;48.128;11.376;2022-12-08T03:10:16;-3276.50;96.60
9448;DHT22;4762;48.128;11.376;2022-12-08T03:12:52;-3276.70;96.30
9448;DHT22;4762;48.128;11.376;2022-12-08T03:14:37;-3276.70;96.00
9448;DHT22;4762;48.128;11.376;2022-12-08T03:16:40;0.00;95.60
9448;DHT22;4762;48.128;11.376;2022-12-08T03:18:44;0.00;96.00
9448;DHT22;4762;48.128;11.376;2022-12-08T03:20:46;-3276.60;96.30
9448;DHT22;4762;48.128;11.376;2022-12-08T03:22:49;-3276.30;96.50
9448;DHT22;4762;48.128;11.376;2022-12-08T03:24:51;-3276.50;96.00
9448;DHT22;4762;48.128;11.376;2022-12-08T03:26:55;-3276.50;96.20
9448;DHT22;4762;48.128;11.376;2022-12-08T03:28:56;-3276.60;95.90
9448;DHT22;4762;48.128;11.376;2022-12-08T03:30:59;-3276.40;95.60
9448;DHT22;4762;48.128;11.376;2022-12-08T03:33:03;-3276.40;95.80
9448;DHT22;4762;48.128;11.376;2022-12-08T03:35:07;-3276.20;96.10
9448;DHT22;4762;48.128;11.376;2022-12-08T03:37:08;-3276.40;96.10
9448;DHT22;4762;48.128;11.376;2022-12-08T03:39:14;-3276.40;96.30
9448;DHT22;4762;48.128;11.376;2022-12-08T03:41:17;-3276.30;96.30
9448;DHT22;4762;48.128;11.376;2022-12-08T03:43:19;-3276.20;96.30
9448;DHT22;4762;48.128;11.376;2022-12-08T03:45:21;-3276.30;96.20
9448;DHT22;4762;48.128;11.376;2022-12-08T03:47:24;-3276.30;96.70
9448;DHT22;4762;48.128;11.376;2022-12-08T03:49:26;-3276.10;96.30
9448;DHT22;4762;48.128;11.376;2022-12-08T03:51:28;-3276.20;96.40
9448;DHT22;4762;48.128;11.376;2022-12-08T03:53:33;-3276.10;96.50
9448;DHT22;4762;48.128;11.376;2022-12-08T03:55:35;-3276.20;96.80
9448;DHT22;4762;48.128;11.376;2022-12-08T03:57:37;-3276.10;96.50
9448;DHT22;4762;48.128;11.376;2022-12-08T03:59:43;-3276.30;96.50
9448;DHT22;4762;48.128;11.376;2022-12-08T04:01:45;-3276.30;96.10
9448;DHT22;4762;48.128;11.376;2022-12-08T04:03:47;-3276.00;96.00
9448;DHT22;4762;48.128;11.376;2022-12-08T04:05:50;-3276.40;95.80
9448;DHT22;4762;48.128;11.376;2022-12-08T04:07:55;-3276.20;95.80
9448;DHT22;4762;48.128;11.376;2022-12-08T04:09:54;-3276.20;95.80
9448;DHT22;4762;48.128;11.376;2022-12-08T04:11:57;-3276.20;95.80
9448;DHT22;4762;48.128;11.376;2022-12-08T04:13:59;-3276.40;95.70
9448;DHT22;4762;48.128;11.376;2022-12-08T04:16:05;-3276.20;95.90
9448;DHT22;4762;48.128;11.376;2022-12-08T04:18:08;-3276.30;95.90
9448;DHT22;4762;48.128;11.376;2022-12-08T04:20:10;-3276.20;96.90
9448;DHT22;4762;48.128;11.376;2022-12-08T04:22:13;-3276.20;97.40
9448;DHT22;4762;48.128;11.376;2022-12-08T04:24:15;-3276.30;97.20
9448;DHT22;4762;48.128;11.376;2022-12-08T04:26:18;-3276.20;97.50
9448;DHT22;4762;48.128;11.376;2022-12-08T04:28:21;-3276.40;96.80
9448;DHT22;4762;48.128;11.376;2022-12-08T04:30:24;-3276.30;96.80
9448;DHT22;4762;48.128;11.376;2022-12-08T04:32:27;-3276.40;96.80
9448;DHT22;4762;48.128;11.376;2022-12-08T04:34:30;-3276.40;96.50
9448;DHT22;4762;48.128;11.376;2022-12-08T04:36:32;-3276.40;96.80
9448;DHT22;4762;48.128;11.376;2022-12-08T04:38:35;-3276.30;96.50
9448;DHT22;4762;48.128;11.376;2022-12-08T04:40:37;-3276.40;96.40
9448;DHT22;4762;48.128;11.376;2022-12-08T04:42:40;-3276.30;96.20
9448;DHT22;4762;48.128;11.376;2022-12-08T04:44:43;-3276.40;96.00
9448;DHT22;4762;48.128;11.376;2022-12-08T04:46:46;-3276.40;96.40
9448;DHT22;4762;48.128;11.376;2022-12-08T04:48:50;-3276.50;96.60
9448;DHT22;4762;48.128;11.376;2022-12-08T04:50:52;-3276.50;96.30
9448;DHT22;4762;48.128;11.376;2022-12-08T04:52:54;-3276.40;96.20
9448;DHT22;4762;48.128;11.376;2022-12-08T04:54:57;-3276.40;96.00
9448;DHT22;4762;48.128;11.376;2022-12-08T04:57:00;-3276.50;95.70
9448;DHT22;4762;48.128;11.376;2022-12-08T04:59:03;-3276.50;95.60
9448;DHT22;4762;48.128;11.376;2022-12-08T05:01:05;-3276.40;96.10
9448;DHT22;4762;48.128;11.376;2022-12-08T05:03:08;-3276.30;96.40
9448;DHT22;4762;48.128;11.376;2022-12-08T05:05:10;-3276.50;96.50
9448;DHT22;4762;48.128;11.376;2022-12-08T05:07:12;-3276.30;96.90
9448;DHT22;4762;48.128;11.376;2022-12-08T05:09:16;-3276.60;96.70
9448;DHT22;4762;48.128;11.376;2022-12-08T05:11:19;-3276.70;96.30
9448;DHT22;4762;48.128;11.376;2022-12-08T05:15:44;-3276.60;96.30
9448;DHT22;4762;48.128;11.376;2022-12-08T05:17:47;-3276.50;96.40
9448;DHT22;4762;48.128;11.376;2022-12-08T05:19:49;0.00;96.10
9448;DHT22;4762;48.128;11.376;2022-12-08T05:21:51;-3276.50;96.20
9448;DHT22;4762;48.128;11.376;2022-12-08T05:23:55;-3276.70;96.20
9448;DHT22;4762;48.128;11.376;2022-12-08T05:25:58;-3276.50;96.40
9448;DHT22;4762;48.128;11.376;2022-12-08T05:28:01;-3276.60;96.50
9448;DHT22;4762;48.128;11.376;2022-12-08T05:30:04;-3276.70;96.50
9448;DHT22;4762;48.128;11.376;2022-12-08T05:32:08;-3276.60;96.50
9448;DHT22;4762;48.128;11.376;2022-12-08T05:34:11;-3276.60;96.40
9448;DHT22;4762;48.128;11.376;2022-12-08T05:36:13;-3276.60;96.90
9448;DHT22;4762;48.128;11.376;2022-12-08T05:38:15;-3276.50;97.00
9448;DHT22;4762;48.128;11.376;2022-12-08T05:40:18;-3276.60;96.90
9448;DHT22;4762;48.128;11.376;2022-12-08T05:42:20;-3276.70;96.80
9448;DHT22;4762;48.128;11.376;2022-12-08T05:44:23;-3276.50;96.80
9448;DHT22;4762;48.128;11.376;2022-12-08T05:46:26;-3276.60;96.70
9448;DHT22;4762;48.128;11.376;2022-12-08T05:48:28;-3276.50;96.90
9448;DHT22;4762;48.128;11.376;2022-12-08T05:50:31;-3276.70;97.00
9448;DHT22;4762;48.128;11.376;2022-12-08T05:52:33;-3276.60;97.10
9448;DHT22;4762;48.128;11.376;2022-12-08T05:54:37;-3276.60;97.40
9448;DHT22;4762;48.128;11.376;2022-12-08T05:56:40;-3276.60;97.30
9448;DHT22;4762;48.128;11.376;2022-12-08T05:58:42;-3276.60;97.20
9448;DHT22;4762;48.128;11.376;2022-12-08T06:00:45;-3276.70;97.10
9448;DHT22;4762;48.128;11.376;2022-12-08T06:02:47;-3276.60;97.10
9448;DHT22;4762;48.128;11.376;2022-12-08T06:04:50;-3276.70;97.10
9448;DHT22;4762;48.128;11.376;2022-12-08T06:06:52;-3276.70;97.10
9448;DHT22;4762;48.128;11.376;2022-12-08T06:08:54;0.00;97.20
9448;DHT22;4762;48.128;11.376;2022-12-08T06:10:57;0.00;97.00
9448;DHT22;4762;48.128;11.376;2022-12-08T06:13:05;0.00;97.00
9448;DHT22;4762;48.128;11.376;2022-12-08T06:15:08;-3276.60;96.70
9448;DHT22;4762;48.128;11.376;2022-12-08T06:21:56;-3276.70;97.10
9448;DHT22;4762;48.128;11.376;2022-12-08T06:23:58;-3276.50;97.30
9448;DHT22;4762;48.128;11.376;2022-12-08T06:26:15;-3276.50;96.90
9448;DHT22;4762;48.128;11.376;2022-12-08T06:28:19;-3276.60;97.40
9448;DHT22;4762;48.128;11.376;2022-12-08T06:30:21;-3276.70;96.90
9448;DHT22;4762;48.128;11.376;2022-12-08T06:32:24;0.00;96.80
9448;DHT22;4762;48.128;11.376;2022-12-08T06:34:27;-3276.60;96.90
9448;DHT22;4762;48.128;11.376;2022-12-08T06:36:29;-3276.70;97.00
9448;DHT22;4762;48.128;11.376;2022-12-08T06:38:32;0.10;97.00
9448;DHT22;4762;48.128;11.376;2022-12-08T06:40:34;-3276.70;96.80
9448;DHT22;4762;48.128;11.376;2022-12-08T06:42:37;-3276.70;97.20
9448;DHT22;4762;48.128;11.376;2022-12-08T06:44:45;-3276.70;96.90
9448;DHT22;4762;48.128;11.376;2022-12-08T06:46:47;0.00;96.80
9448;DHT22;4762;48.128;11.376;2022-12-08T06:48:50;0.00;97.00
9448;DHT22;4762;48.128;11.376;2022-12-08T06:50:52;-3276.60;96.70
9448;DHT22;4762;48.128;11.376;2022-12-08T06:52:54;-3276.70;96.60
9448;DHT22;4762;48.128;11.376;2022-12-08T06:54:57;-3276.70;96.80
9448;DHT22;4762;48.128;11.376;2022-12-08T06:56:59;-3276.70;97.00
9448;DHT22;4762;48.128;11.376;2022-12-08T06:59:02;-3276.70;96.80
9448;DHT22;4762;48.128;11.376;2022-12-08T07:01:05;0.00;96.70
9448;DHT22;4762;48.128;11.376;2022-12-08T07:03:07;-3276.70;96.90
9448;DHT22;4762;48.128;11.376;2022-12-08T07:05:10;0.00;96.60
9448;DHT22;4762;48.128;11.376;2022-12-08T07:07:13;-3276.70;96.50
9448;DHT22;4762;48.128;11.376;2022-12-08T07:09:16;0.10;96.30
9448;DHT22;4762;48.128;11.376;2022-12-08T07:11:18;0.00;96.90
9448;DHT22;4762;48.128;11.376;2022-12-08T07:13:20;-3276.50;97.60
9448;DHT22;4762;48.128;11.376;2022-12-08T07:15:22;-3276.40;97.80
9448;DHT22;4762;48.128;11.376;2022-12-08T07:17:25;0.00;97.60
9448;DHT22;4762;48.128;11.376;2022-12-08T07:19:28;0.10;97.40
9448;DHT22;4762;48.128;11.376;2022-12-08T07:21:30;0.00;97.50
9448;DHT22;4762;48.128;11.376;2022-12-08T07:23:33;0.00;97.20
9448;DHT22;4762;48.128;11.376;2022-12-08T07:25:36;0.20;97.20
9448;DHT22;4762;48.128;11.376;2022-12-08T07:27:39;0.10;97.30
9448;DHT22;4762;48.128;11.376;2022-12-08T07:29:41;0.10;97.20
9448;DHT22;4762;48.128;11.376;2022-12-08T07:31:44;0.40;97.10
9448;DHT22;4762;48.128;11.376;2022-12-08T07:33:47;0.30;97.10
9448;DHT22;4762;48.128;11.376;2022-12-08T07:35:56;0.50;97.20
9448;DHT22;4762;48.128;11.376;2022-12-08T07:37:59;0.40;97.10
9448;DHT22;4762;48.128;11.376;2022-12-08T07:40:05;0.50;97.10
9448;DHT22;4762;48.128;11.376;2022-12-08T07:42:07;0.40;97.40
9448;DHT22;4762;48.128;11.376;2022-12-08T07:44:09;0.40;97.10
9448;DHT22;4762;48.128;11.376;2022-12-08T07:46:15;0.40;97.10
9448;DHT22;4762;48.128;11.376;2022-12-08T07:48:16;0.70;97.10
9448;DHT22;4762;48.128;11.376;2022-12-08T07:50:19;0.50;97.10
9448;DHT22;4762;48.128;11.376;2022-12-08T07:52:22;0.40;96.90
9448;DHT22;4762;48.128;11.376;2022-12-08T07:54:27;0.40;97.10
9448;DHT22;4762;48.128;11.376;2022-12-08T07:56:29;0.40;96.90
9448;DHT22;4762;48.128;11.376;2022-12-08T07:58:32;0.70;97.00
9448;DHT22;4762;48.128;11.376;2022-12-08T08:00:34;0.70;97.30
9448;DHT22;4762;48.128;11.376;2022-12-08T08:02:36;0.70;97.20
9448;DHT22;4762;48.128;11.376;2022-12-08T08:04:39;0.60;97.10
9448;DHT22;4762;48.128;11.376;2022-12-08T08:06:41;0.80;96.80
9448;DHT22;4762;48.128;11.376;2022-12-08T08:08:43;0.90;97.10
9448;DHT22;4762;48.128;11.376;2022-12-08T08:10:46;0.90;96.30
9448;DHT22;4762;48.128;11.376;2022-12-08T08:12:52;0.90;96.70
9448;DHT22;4762;48.128;11.376;2022-12-08T08:14:55;1.20;96.60
9448;DHT22;4762;48.128;11.376;2022-12-08T08:16:58;1.20;96.90
9448;DHT22;4762;48.128;11.376;2022-12-08T08:19:01;1.30;96.70
9448;DHT22;4762;48.128;11.376;2022-12-08T08:21:04;1.10;96.70
9448;DHT22;4762;48.128;11.376;2022-12-08T08:23:06;1.30;96.50
9448;DHT22;4762;48.128;11.376;2022-12-08T08:25:09;1.30;96.50
9448;DHT22;4762;48.128;11.376;2022-12-08T08:27:11;1.40;96.30
9448;DHT22;4762;48.128;11.376;2022-12-08T08:29:15;1.40;96.40
9448;DHT22;4762;48.128;11.376;2022-12-08T08:31:22;1.60;96.30
9448;DHT22;4762;48.128;11.376;2022-12-08T08:33:21;1.40;95.80
9448;DHT22;4762;48.128;11.376;2022-12-08T08:35:24;1.50;96.20
9448;DHT22;4762;48.128;11.376;2022-12-08T08:37:28;1.80;96.20
9448;DHT22;4762;48.128;11.376;2022-12-08T08:39:30;1.50;96.00
9448;DHT22;4762;48.128;11.376;2022-12-08T08:41:32;1.80;95.90
9448;DHT22;4762;48.128;11.376;2022-12-08T08:43:36;1.60;95.30
9448;DHT22;4762;48.128;11.376;2022-12-08T08:45:39;1.60;95.40
9448;DHT22;4762;48.128;11.376;2022-12-08T08:47:42;1.80;95.80
9448;DHT22;4762;48.128;11.376;2022-12-08T08:49:45;1.50;95.60
9448;DHT22;4762;48.128;11.376;2022-12-08T08:51:50;1.80;95.20
9448;DHT22;4762;48.128;11.376;2022-12-08T08:53:53;1.80;95.50
9448;DHT22;4762;48.128;11.376;2022-12-08T08:55:59;1.80;95.30
9448;DHT22;4762;48.128;11.376;2022-12-08T08:58:01;1.90;95.40
9448;DHT22;4762;48.128;11.376;2022-12-08T09:00:08;1.90;94.10
9448;DHT22;4762;48.128;11.376;2022-12-08T09:02:15;1.90;94.70
9448;DHT22;4762;48.128;11.376;2022-12-08T09:04:17;2.10;95.30
9448;DHT22;4762;48.128;11.376;2022-12-08T09:06:20;2.20;94.70
9448;DHT22;4762;48.128;11.376;2022-12-08T09:08:24;2.30;94.50
9448;DHT22;4762;48.128;11.376;2022-12-08T09:10:27;2.30;93.00
9448;DHT22;4762;48.128;11.376;2022-12-08T09:12:29;2.20;93.90
9448;DHT22;4762;48.128;11.376;2022-12-08T09:14:31;2.60;95.00
9448;DHT22;4762;48.128;11.376;2022-12-08T09:16:39;2.40;93.00
9448;DHT22;4762;48.128;11.376;2022-12-08T09:18:43;2.60;93.80
9448;DHT22;4762;48.128;11.376;2022-12-08T09:20:45;2.50;93.60
9448;DHT22;4762;48.128;11.376;2022-12-08T09:22:48;2.60;93.30
9448;DHT22;4762;48.128;11.376;2022-12-08T09:24:52;2.50;92.60
9448;DHT22;4762;48.128;11.376;2022-12-08T09:26:58;2.50;93.60
9448;DHT22;4762;48.128;11.376;2022-12-08T09:29:02;2.50;93.20
9448;DHT22;4762;48.128;11.376;2022-12-08T09:31:05;2.80;94.00
9448;DHT22;4762;48.128;11.376;2022-12-08T09:33:09;2.80;93.40
9448;DHT22;4762;48.128;11.376;2022-12-08T09:35:13;2.70;92.80
9448;DHT22;4762;48.128;11.376;2022-12-08T09:37:16;2.90;93.10
9448;DHT22;4762;48.128;11.376;2022-12-08T09:39:19;3.00;92.70
9448;DHT22;4762;48.128;11.376;2022-12-08T09:41:37;2.70;91.30
9448;DHT22;4762;48.128;11.376;2022-12-08T09:43:54;2.70;92.20
9448;DHT22;4762;48.128;11.376;2022-12-08T09:45:56;2.50;92.50
9448;DHT22;4762;48.128;11.376;2022-12-08T09:48:04;2.50;92.70
9448;DHT22;4762;48.128;11.376;2022-12-08T09:50:17;2.90;93.80
9448;DHT22;4762;48.128;11.376;2022-12-08T09:52:21;2.90;93.30
9448;DHT22;4762;48.128;11.376;2022-12-08T09:54:29;3.10;93.10
9448;DHT22;4762;48.128;11.376;2022-12-08T09:56:31;3.20;92.00
9448;DHT22;4762;48.128;11.376;2022-12-08T09:58:44;3.30;91.90
9448;DHT22;4762;48.128;11.376;2022-12-08T10:00:45;2.80;92.10
9448;DHT22;4762;48.128;11.376;2022-12-08T10:02:47;2.80;92.20
9448;DHT22;4762;48.128;11.376;2022-12-08T10:04:53;3.00;91.80
9448;DHT22;4762;48.128;11.376;2022-12-08T10:07:01;2.70;92.10
9448;DHT22;4762;48.128;11.376;2022-12-08T10:11:28;3.00;92.30
9448;DHT22;4762;48.128;11.376;2022-12-08T10:14:21;3.30;92.00
9448;DHT22;4762;48.128;11.376;2022-12-08T10:16:23;3.40;92.20
9448;DHT22;4762;48.128;11.376;2022-12-08T10:18:28;3.30;91.00
9448;DHT22;4762;48.128;11.376;2022-12-08T10:20:36;3.30;91.20
9448;DHT22;4762;48.128;11.376;2022-12-08T10:22:38;3.30;91.30
9448;DHT22;4762;48.128;11.376;2022-12-08T10:24:42;3.40;90.70
9448;DHT22;4762;48.128;11.376;2022-12-08T10:26:43;3.30;91.30
9448;DHT22;4762;48.128;11.376;2022-12-08T10:28:47;3.20;91.00
9448;DHT22;4762;48.128;11.376;2022-12-08T10:30:49;3.60;91.10
9448;DHT22;4762;48.128;11.376;2022-12-08T10:32:53;3.40;90.50
9448;DHT22;4762;48.128;11.376;2022-12-08T10:34:59;3.50;90.40
9448;DHT22;4762;48.128;11.376;2022-12-08T10:37:01;3.60;89.80
9448;DHT22;4762;48.128;11.376;2022-12-08T10:39:03;3.10;89.10
9448;DHT22;4762;48.128;11.376;2022-12-08T10:41:12;3.50;89.10
9448;DHT22;4762;48.128;11.376;2022-12-08T10:43:16;3.30;89.10
9448;DHT22;4762;48.128;11.376;2022-12-08T10:45:26;3.60;89.70
9448;DHT22;4762;48.128;11.376;2022-12-08T10:47:28;3.30;87.80
9448;DHT22;4762;48.128;11.376;2022-12-08T10:49:32;3.20;87.90
9448;DHT22;4762;48.128;11.376;2022-12-08T10:51:37;3.60;90.50
9448;DHT22;4762;48.128;11.376;2022-12-08T10:53:43;3.60;88.00
9448;DHT22;4762;48.128;11.376;2022-12-08T10:55:43;3.80;88.70
9448;DHT22;4762;48.128;11.376;2022-12-08T10:57:44;3.90;89.50
9448;DHT22;4762;48.128;11.376;2022-12-08T10:59:48;4.10;88.60
9448;DHT22;4762;48.128;11.376;2022-12-08T11:01:52;4.00;89.20
9448;DHT22;4762;48.128;11.376;2022-12-08T11:03:58;4.30;89.10
9448;DHT22;4762;48.128;11.376;2022-12-08T11:06:01;4.00;88.30
9448;DHT22;4762;48.128;11.376;2022-12-08T11:08:03;4.20;89.00
9448;DHT22;4762;48.128;11.376;2022-12-08T11:10:14;4.20;87.80
9448;DHT22;4762;48.128;11.376;2022-12-08T11:12:13;3.90;88.70
9448;DHT22;4762;48.128;11.376;2022-12-08T11:14:21;4.00;87.40
9448;DHT22;4762;48.128;11.376;2022-12-08T11:16:22;3.70;88.10
9448;DHT22;4762;48.128;11.376;2022-12-08T11:18:27;3.80;88.70
9448;DHT22;4762;48.128;11.376;2022-12-08T11:20:29;4.10;88.90
9448;DHT22;4762;48.128;11.376;2022-12-08T11:22:34;4.00;89.40
9448;DHT22;4762;48.128;11.376;2022-12-08T11:24:36;4.10;89.30
9448;DHT22;4762;48.128;11.376;2022-12-08T11:26:38;3.80;88.70
9448;DHT22;4762;48.128;11.376;2022-12-08T11:28:41;3.60;88.70
9448;DHT22;4762;48.128;11.376;2022-12-08T11:30:44;3.60;89.40
9448;DHT22;4762;48.128;11.376;2022-12-08T11:32:48;3.80;90.20
9448;DHT22;4762;48.128;11.376;2022-12-08T11:35:06;4.00;89.70
9448;DHT22;4762;48.128;11.376;2022-12-08T11:37:42;3.90;88.30
9448;DHT22;4762;48.128;11.376;2022-12-08T11:39:27;4.00;88.80
9448;DHT22;4762;48.128;11.376;2022-12-08T11:41:36;3.90;88.60
9448;DHT22;4762;48.128;11.376;2022-12-08T11:46:18;4.20;88.90
9448;DHT22;4762;48.128;11.376;2022-12-08T11:48:25;4.30;88.40
9448;DHT22;4762;48.128;11.376;2022-12-08T11:50:34;4.30;88.40
9448;DHT22;4762;48.128;11.376;2022-12-08T11:57:13;4.40;88.40
9448;DHT22;4762;48.128;11.376;2022-12-08T11:59:35;4.40;87.40
9448;DHT22;4762;48.128;11.376;2022-12-08T12:01:38;4.20;87.20
9448;DHT22;4762;48.128;11.376;2022-12-08T12:03:43;4.20;88.00
9448;DHT22;4762;48.128;11.376;2022-12-08T12:05:51;4.20;87.60
9448;DHT22;4762;48.128;11.376;2022-12-08T12:07:52;4.10;87.20
9448;DHT22;4762;48.128;11.376;2022-12-08T12:11:04;3.90;87.80
9448;DHT22;4762;48.128;11.376;2022-12-08T12:12:42;4.00;87.90
9448;DHT22;4762;48.128;11.376;2022-12-08T12:15:11;3.90;88.20
9448;DHT22;4762;48.128;11.376;2022-12-08T12:17:06;3.80;88.20
9448;DHT22;4762;48.128;11.376;2022-12-08T12:19:12;4.00;87.90
9448;DHT22;4762;48.128;11.376;2022-12-08T12:21:17;3.90;88.30
9448;DHT22;4762;48.128;11.376;2022-12-08T12:23:20;4.10;88.30
9448;DHT22;4762;48.128;11.376;2022-12-08T12:25:31;4.10;88.70
9448;DHT22;4762;48.128;11.376;2022-12-08T12:27:43;4.50;88.80
9448;DHT22;4762;48.128;11.376;2022-12-08T12:30:05;4.50;86.80
9448;DHT22;4762;48.128;11.376;2022-12-08T12:32:06;4.30;88.00
9448;DHT22;4762;48.128;11.376;2022-12-08T12:34:14;4.20;85.30
9448;DHT22;4762;48.128;11.376;2022-12-08T12:36:13;4.20;87.10
9448;DHT22;4762;48.128;11.376;2022-12-08T12:38:19;4.40;86.70
9448;DHT22;4762;48.128;11.376;2022-12-08T12:40:27;4.40;88.30
9448;DHT22;4762;48.128;11.376;2022-12-08T12:43:11;4.70;87.10
9448;DHT22;4762;48.128;11.376;2022-12-08T12:45:10;4.30;86.30
9448;DHT22;4762;48.128;11.376;2022-12-08T12:46:59;4.40;86.30
9448;DHT22;4762;48.128;11.376;2022-12-08T12:53:46;4.40;87.00
9448;DHT22;4762;48.128;11.376;2022-12-08T12:55:56;4.40;86.50
9448;DHT22;4762;48.128;11.376;2022-12-08T12:58:02;4.30;86.70
9448;DHT22;4762;48.128;11.376;2022-12-08T13:00:07;4.20;84.80
9448;DHT22;4762;48.128;11.376;2022-12-08T13:02:19;4.30;86.60
9448;DHT22;4762;48.128;11.376;2022-12-08T13:04:34;4.30;86.10
9448;DHT22;4762;48.128;11.376;2022-12-08T13:06:40;4.60;85.80
9448;DHT22;4762;48.128;11.376;2022-12-08T13:08:59;4.50;86.50
9448;DHT22;4762;48.128;11.376;2022-12-08T13:11:04;4.60;85.70
9448;DHT22;4762;48.128;11.376;2022-12-08T13:13:16;4.60;86.70
9448;DHT22;4762;48.128;11.376;2022-12-08T13:15:19;4.80;86.10
9448;DHT22;4762;48.128;11.376;2022-12-08T13:17:26;4.70;85.60
9448;DHT22;4762;48.128;11.376;2022-12-08T13:19:29;4.60;84.60
9448;DHT22;4762;48.128;11.376;2022-12-08T13:21:34;4.40;84.10
9448;DHT22;4762;48.128;11.376;2022-12-08T13:26:12;4.40;85.50
9448;DHT22;4762;48.128;11.376;2022-12-08T13:28:25;4.30;84.80
9448;DHT22;4762;48.128;11.376;2022-12-08T13:32:52;4.20;84.90
9448;DHT22;4762;48.128;11.376;2022-12-08T13:34:54;4.30;85.70
9448;DHT22;4762;48.128;11.376;2022-12-08T13:37:17;4.30;85.40
9448;DHT22;4762;48.128;11.376;2022-12-08T13:39:22;3.80;85.10
9448;DHT22;4762;48.128;11.376;2022-12-08T13:41:37;4.00;85.60
9448;DHT22;4762;48.128;11.376;2022-12-08T13:43:47;3.90;84.70
9448;DHT22;4762;48.128;11.376;2022-12-08T13:45:49;3.60;85.10
9448;DHT22;4762;48.128;11.376;2022-12-08T13:50:18;3.90;85.20
9448;DHT22;4762;48.128;11.376;2022-12-08T13:52:27;3.60;85.10
9448;DHT22;4762;48.128;11.376;2022-12-08T13:54:25;3.80;85.50
9448;DHT22;4762;48.128;11.376;2022-12-08T13:56:36;3.80;85.20